Ayer, Massachusetts
Current Conditions -  °F | °C
As of 3:52 PM on Sunday 23 Nov 2014 (Local Time) from KFIT Reporting Station
Clear Clear  
Wind Chill: 54°   Ceiling: Unl
Heat Index: 54°   Visibility: 10mi
Dew Point: 36°   Wind: 0mph
Humidity: 51%   Direction: NA
Pressure: 30.1"   Gusts: NA
Location:  42.56°N, 71.58°W
Report Text: KFIT 232052Z AUTO 00000KT 10SM CLR 12/02 A3010 RMK AO2 SLP194 T01220022 58003
Loading
Personal Weather Stations






























Interactive Weather Map New forecast layout! Learn more

10-Day Weather Forecast

Advertisements
Track Severe Weather on mobile